sensor_id;sensor_type;location;lat;lon;timestamp;temperature;humidity
5218;DHT22;26539;51.064;6.346;2022-12-16T00:01:20;-3.20;99.90
5218;DHT22;26539;51.064;6.346;2022-12-16T00:03:52;-3.30;99.90
5218;DHT22;26539;51.064;6.346;2022-12-16T00:06:19;-3.30;99.90
5218;DHT22;26539;51.064;6.346;2022-12-16T00:08:45;-3.30;99.90
5218;DHT22;26539;51.064;6.346;2022-12-16T00:11:11;-3.30;99.90
5218;DHT22;26539;51.064;6.346;2022-12-16T00:13:38;-3.20;1.00
5218;DHT22;26539;51.064;6.346;2022-12-16T00:16:18;-3.20;99.90
5218;DHT22;26539;51.064;6.346;2022-12-16T00:18:44;-3.20;99.90
5218;DHT22;26539;51.064;6.346;2022-12-16T00:21:10;-3.20;99.90
5218;DHT22;26539;51.064;6.346;2022-12-16T00:23:36;-3.20;99.90
5218;DHT22;26539;51.064;6.346;2022-12-16T00:26:09;-3.20;99.90
5218;DHT22;26539;51.064;6.346;2022-12-16T00:28:36;-3.30;99.90
5218;DHT22;26539;51.064;6.346;2022-12-16T00:31:02;-3.30;99.90
5218;DHT22;26539;51.064;6.346;2022-12-16T00:33:27;-3.30;99.90
5218;DHT22;26539;51.064;6.346;2022-12-16T00:35:53;-3.30;99.90
5218;DHT22;26539;51.064;6.346;2022-12-16T00:38:19;-3.40;99.90
5218;DHT22;26539;51.064;6.346;2022-12-16T00:40:45;-3.40;99.90
5218;DHT22;26539;51.064;6.346;2022-12-16T00:43:11;-3.40;99.90
5218;DHT22;26539;51.064;6.346;2022-12-16T00:45:37;-3.40;99.90
5218;DHT22;26539;51.064;6.346;2022-12-16T00:48:04;-3.40;99.90
5218;DHT22;26539;51.064;6.346;2022-12-16T00:50:30;-3.40;99.90
5218;DHT22;26539;51.064;6.346;2022-12-16T00:52:55;-3.40;99.90
5218;DHT22;26539;51.064;6.346;2022-12-16T00:55:21;-3.40;99.90
5218;DHT22;26539;51.064;6.346;2022-12-16T00:57:47;-3.40;99.90
5218;DHT22;26539;51.064;6.346;2022-12-16T01:00:14;-3.40;99.90
5218;DHT22;26539;51.064;6.346;2022-12-16T01:02:46;-3.50;99.90
5218;DHT22;26539;51.064;6.346;2022-12-16T01:05:14;-3.50;99.90
5218;DHT22;26539;51.064;6.346;2022-12-16T01:07:40;-3.50;99.90
5218;DHT22;26539;51.064;6.346;2022-12-16T01:10:07;-3.50;99.90
5218;DHT22;26539;51.064;6.346;2022-12-16T01:12:33;-3.50;99.90
5218;DHT22;26539;51.064;6.346;2022-12-16T01:15:00;-3.50;99.90
5218;DHT22;26539;51.064;6.346;2022-12-16T01:17:26;-3.50;99.90
5218;DHT22;26539;51.064;6.346;2022-12-16T01:19:52;-3.60;99.90
5218;DHT22;26539;51.064;6.346;2022-12-16T01:22:19;-3.60;99.90
5218;DHT22;26539;51.064;6.346;2022-12-16T01:24:44;-3.60;99.90
5218;DHT22;26539;51.064;6.346;2022-12-16T01:27:11;-3.60;99.90
5218;DHT22;26539;51.064;6.346;2022-12-16T01:29:36;-3.60;99.90
5218;DHT22;26539;51.064;6.346;2022-12-16T01:32:02;-3.60;99.90
5218;DHT22;26539;51.064;6.346;2022-12-16T01:34:28;-3.60;99.90
5218;DHT22;26539;51.064;6.346;2022-12-16T01:36:54;-3.60;99.90
5218;DHT22;26539;51.064;6.346;2022-12-16T01:39:19;-3.60;99.90
5218;DHT22;26539;51.064;6.346;2022-12-16T01:41:45;-3.50;99.90
5218;DHT22;26539;51.064;6.346;2022-12-16T01:44:25;-3.50;99.90
5218;DHT22;26539;51.064;6.346;2022-12-16T01:46:55;-3.50;99.90
5218;DHT22;26539;51.064;6.346;2022-12-16T01:49:29;-3.50;99.90
5218;DHT22;26539;51.064;6.346;2022-12-16T01:52:02;-3.50;99.90
5218;DHT22;26539;51.064;6.346;2022-12-16T01:54:33;-3.60;99.90
5218;DHT22;26539;51.064;6.346;2022-12-16T01:57:09;-3.60;99.90
5218;DHT22;26539;51.064;6.346;2022-12-16T01:59:39;-3.60;99.90
5218;DHT22;26539;51.064;6.346;2022-12-16T02:02:06;-3.60;99.90
5218;DHT22;26539;51.064;6.346;2022-12-16T02:04:32;-3.70;99.90
5218;DHT22;26539;51.064;6.346;2022-12-16T02:06:57;-3.70;99.90
5218;DHT22;26539;51.064;6.346;2022-12-16T02:09:24;-3.70;99.90
5218;DHT22;26539;51.064;6.346;2022-12-16T02:18:02;-3.80;99.90
5218;DHT22;26539;51.064;6.346;2022-12-16T02:20:38;-3.80;99.90
5218;DHT22;26539;51.064;6.346;2022-12-16T02:23:41;-3.80;99.90
5218;DHT22;26539;51.064;6.346;2022-12-16T02:31:56;-3.90;99.90
5218;DHT22;26539;51.064;6.346;2022-12-16T02:35:17;-3.90;99.90
5218;DHT22;26539;51.064;6.346;2022-12-16T02:37:30;-3.90;99.90
5218;DHT22;26539;51.064;6.346;2022-12-16T02:40:02;-3.90;99.90
5218;DHT22;26539;51.064;6.346;2022-12-16T02:42:46;-3.90;99.90
5218;DHT22;26539;51.064;6.346;2022-12-16T02:45:24;-3.90;99.90
5218;DHT22;26539;51.064;6.346;2022-12-16T02:47:51;-3.90;99.90
5218;DHT22;26539;51.064;6.346;2022-12-16T02:50:25;-4.00;99.90
5218;DHT22;26539;51.064;6.346;2022-12-16T02:52:52;-4.00;99.90
5218;DHT22;26539;51.064;6.346;2022-12-16T02:55:19;-4.00;99.90
5218;DHT22;26539;51.064;6.346;2022-12-16T03:00:25;-4.00;99.90
5218;DHT22;26539;51.064;6.346;2022-12-16T03:03:04;-4.00;99.90
5218;DHT22;26539;51.064;6.346;2022-12-16T03:05:34;-4.00;99.90
5218;DHT22;26539;51.064;6.346;2022-12-16T03:08:05;-4.00;99.90
5218;DHT22;26539;51.064;6.346;2022-12-16T03:10:40;-4.00;99.90
5218;DHT22;26539;51.064;6.346;2022-12-16T03:13:09;-4.10;99.90
5218;DHT22;26539;51.064;6.346;2022-12-16T03:15:36;-4.00;99.90
5218;DHT22;26539;51.064;6.346;2022-12-16T03:18:04;-4.00;99.90
5218;DHT22;26539;51.064;6.346;2022-12-16T03:20:42;-4.00;99.90
5218;DHT22;26539;51.064;6.346;2022-12-16T03:23:13;-4.00;99.90
5218;DHT22;26539;51.064;6.346;2022-12-16T03:25:43;-4.00;99.90
5218;DHT22;26539;51.064;6.346;2022-12-16T03:30:45;-3.90;99.90
5218;DHT22;26539;51.064;6.346;2022-12-16T03:33:23;-3.90;99.90
5218;DHT22;26539;51.064;6.346;2022-12-16T03:35:59;-3.90;99.90
5218;DHT22;26539;51.064;6.346;2022-12-16T03:38:27;-3.90;99.90
5218;DHT22;26539;51.064;6.346;2022-12-16T03:40:53;-3.90;99.90
5218;DHT22;26539;51.064;6.346;2022-12-16T03:43:20;-3.90;99.90
5218;DHT22;26539;51.064;6.346;2022-12-16T03:45:51;-4.00;99.90
5218;DHT22;26539;51.064;6.346;2022-12-16T03:48:23;-4.00;99.90
5218;DHT22;26539;51.064;6.346;2022-12-16T03:50:49;-4.00;99.90
5218;DHT22;26539;51.064;6.346;2022-12-16T03:53:14;-4.00;99.90
5218;DHT22;26539;51.064;6.346;2022-12-16T03:55:40;-4.00;99.90
5218;DHT22;26539;51.064;6.346;2022-12-16T03:58:05;-4.00;99.90
5218;DHT22;26539;51.064;6.346;2022-12-16T04:00:31;-4.00;99.90
5218;DHT22;26539;51.064;6.346;2022-12-16T04:02:57;-4.00;99.90
5218;DHT22;26539;51.064;6.346;2022-12-16T04:05:22;-4.00;99.90
5218;DHT22;26539;51.064;6.346;2022-12-16T04:07:48;-4.10;99.90
5218;DHT22;26539;51.064;6.346;2022-12-16T04:10:14;-4.10;99.90
5218;DHT22;26539;51.064;6.346;2022-12-16T04:12:39;-4.10;99.90
5218;DHT22;26539;51.064;6.346;2022-12-16T04:15:23;-4.10;99.90
5218;DHT22;26539;51.064;6.346;2022-12-16T04:18:13;-4.10;99.90
5218;DHT22;26539;51.064;6.346;2022-12-16T04:20:58;-4.20;99.90
5218;DHT22;26539;51.064;6.346;2022-12-16T04:23:48;-4.20;99.90
5218;DHT22;26539;51.064;6.346;2022-12-16T04:26:33;-4.10;99.90
5218;DHT22;26539;51.064;6.346;2022-12-16T04:29:17;-4.10;99.90
5218;DHT22;26539;51.064;6.346;2022-12-16T04:31:43;-4.10;99.90
5218;DHT22;26539;51.064;6.346;2022-12-16T04:34:08;-4.10;99.90
5218;DHT22;26539;51.064;6.346;2022-12-16T04:36:59;-4.10;99.90
5218;DHT22;26539;51.064;6.346;2022-12-16T04:39:44;-4.10;99.90
5218;DHT22;26539;51.064;6.346;2022-12-16T04:42:28;-4.10;99.90
5218;DHT22;26539;51.064;6.346;2022-12-16T04:45:13;-4.20;99.90
5218;DHT22;26539;51.064;6.346;2022-12-16T04:47:57;-4.20;99.90
5218;DHT22;26539;51.064;6.346;2022-12-16T04:50:43;-4.30;99.90
5218;DHT22;26539;51.064;6.346;2022-12-16T04:53:27;-4.40;99.90
5218;DHT22;26539;51.064;6.346;2022-12-16T04:56:11;-4.40;99.90
5218;DHT22;26539;51.064;6.346;2022-12-16T04:58:55;-4.40;99.90
5218;DHT22;26539;51.064;6.346;2022-12-16T05:01:39;-4.40;1.00
5218;DHT22;26539;51.064;6.346;2022-12-16T05:04:23;-4.40;1.00
5218;DHT22;26539;51.064;6.346;2022-12-16T05:07:07;-4.40;1.00
5218;DHT22;26539;51.064;6.346;2022-12-16T05:09:51;-4.40;1.00
5218;DHT22;26539;51.064;6.346;2022-12-16T05:12:35;-4.40;1.00
5218;DHT22;26539;51.064;6.346;2022-12-16T05:15:19;-4.40;1.00
5218;DHT22;26539;51.064;6.346;2022-12-16T05:18:22;-4.40;1.00
5218;DHT22;26539;51.064;6.346;2022-12-16T05:21:06;-4.30;1.00
5218;DHT22;26539;51.064;6.346;2022-12-16T05:23:50;-4.30;1.00
5218;DHT22;26539;51.064;6.346;2022-12-16T05:26:34;-4.30;1.00
5218;DHT22;26539;51.064;6.346;2022-12-16T05:29:18;-4.30;1.00
5218;DHT22;26539;51.064;6.346;2022-12-16T05:32:02;-4.20;1.00
5218;DHT22;26539;51.064;6.346;2022-12-16T05:34:47;-4.20;99.90
5218;DHT22;26539;51.064;6.346;2022-12-16T05:37:31;-4.20;99.90
5218;DHT22;26539;51.064;6.346;2022-12-16T05:40:15;-4.20;99.90
5218;DHT22;26539;51.064;6.346;2022-12-16T05:42:59;-4.30;99.90
5218;DHT22;26539;51.064;6.346;2022-12-16T05:45:43;-4.30;99.90
5218;DHT22;26539;51.064;6.346;2022-12-16T05:48:27;-4.30;99.90
5218;DHT22;26539;51.064;6.346;2022-12-16T05:51:14;-4.30;99.90
5218;DHT22;26539;51.064;6.346;2022-12-16T05:53:58;-4.30;99.90
5218;DHT22;26539;51.064;6.346;2022-12-16T05:56:42;-4.30;99.90
5218;DHT22;26539;51.064;6.346;2022-12-16T05:59:26;-4.30;99.90
5218;DHT22;26539;51.064;6.346;2022-12-16T06:02:10;-4.40;99.90
5218;DHT22;26539;51.064;6.346;2022-12-16T06:04:54;-4.40;99.90
5218;DHT22;26539;51.064;6.346;2022-12-16T06:07:38;-4.40;99.90
5218;DHT22;26539;51.064;6.346;2022-12-16T06:10:22;-4.40;99.90
5218;DHT22;26539;51.064;6.346;2022-12-16T06:13:06;-4.40;99.90
5218;DHT22;26539;51.064;6.346;2022-12-16T06:15:50;-4.40;99.90
5218;DHT22;26539;51.064;6.346;2022-12-16T06:18:34;-4.40;99.90
5218;DHT22;26539;51.064;6.346;2022-12-16T06:21:18;-4.40;99.90
5218;DHT22;26539;51.064;6.346;2022-12-16T06:24:03;-4.40;99.90
5218;DHT22;26539;51.064;6.346;2022-12-16T06:26:46;-4.50;99.90
5218;DHT22;26539;51.064;6.346;2022-12-16T06:29:30;-4.50;99.90
5218;DHT22;26539;51.064;6.346;2022-12-16T06:32:14;-4.50;99.90
5218;DHT22;26539;51.064;6.346;2022-12-16T06:35:09;-4.60;99.90
5218;DHT22;26539;51.064;6.346;2022-12-16T06:37:53;-4.60;99.90
5218;DHT22;26539;51.064;6.346;2022-12-16T06:40:37;-4.60;99.90
5218;DHT22;26539;51.064;6.346;2022-12-16T06:43:21;-4.50;99.90
5218;DHT22;26539;51.064;6.346;2022-12-16T06:46:05;-4.50;99.90
5218;DHT22;26539;51.064;6.346;2022-12-16T06:48:50;-4.50;99.90
5218;DHT22;26539;51.064;6.346;2022-12-16T06:51:34;-4.50;99.90
5218;DHT22;26539;51.064;6.346;2022-12-16T06:54:18;-4.50;99.90
5218;DHT22;26539;51.064;6.346;2022-12-16T06:57:02;-4.50;99.90
5218;DHT22;26539;51.064;6.346;2022-12-16T06:59:46;-4.40;99.90
5218;DHT22;26539;51.064;6.346;2022-12-16T07:02:30;-4.30;1.00
5218;DHT22;26539;51.064;6.346;2022-12-16T07:05:14;-4.10;1.00
5218;DHT22;26539;51.064;6.346;2022-12-16T07:08:00;-4.00;99.90
5218;DHT22;26539;51.064;6.346;2022-12-16T07:10:44;-3.90;99.90
5218;DHT22;26539;51.064;6.346;2022-12-16T07:13:28;-3.70;99.90
5218;DHT22;26539;51.064;6.346;2022-12-16T07:16:12;-3.60;99.90
5218;DHT22;26539;51.064;6.346;2022-12-16T07:18:59;-3.50;99.90
5218;DHT22;26539;51.064;6.346;2022-12-16T07:21:44;-3.50;99.90
5218;DHT22;26539;51.064;6.346;2022-12-16T07:24:31;-3.50;99.90
5218;DHT22;26539;51.064;6.346;2022-12-16T07:27:15;-3.40;99.90
5218;DHT22;26539;51.064;6.346;2022-12-16T07:29:59;-3.30;99.90
5218;DHT22;26539;51.064;6.346;2022-12-16T07:32:43;-3.10;99.90
5218;DHT22;26539;51.064;6.346;2022-12-16T07:35:26;-3.00;99.90
5218;DHT22;26539;51.064;6.346;2022-12-16T07:38:11;-2.90;99.90
5218;DHT22;26539;51.064;6.346;2022-12-16T07:40:55;-2.80;99.90
5218;DHT22;26539;51.064;6.346;2022-12-16T07:43:39;-2.70;99.90
5218;DHT22;26539;51.064;6.346;2022-12-16T07:46:23;-2.60;99.90
5218;DHT22;26539;51.064;6.346;2022-12-16T07:49:07;-2.50;99.90
5218;DHT22;26539;51.064;6.346;2022-12-16T07:51:51;-2.40;99.90
5218;DHT22;26539;51.064;6.346;2022-12-16T07:54:35;-2.40;99.90
5218;DHT22;26539;51.064;6.346;2022-12-16T07:57:19;-2.30;99.90
5218;DHT22;26539;51.064;6.346;2022-12-16T08:00:04;-2.20;99.90
5218;DHT22;26539;51.064;6.346;2022-12-16T08:02:54;-2.10;99.90
5218;DHT22;26539;51.064;6.346;2022-12-16T08:05:39;-2.00;99.90
5218;DHT22;26539;51.064;6.346;2022-12-16T08:08:23;-1.90;99.90
5218;DHT22;26539;51.064;6.346;2022-12-16T08:11:07;-1.80;99.90
5218;DHT22;26539;51.064;6.346;2022-12-16T08:13:52;-1.70;99.90
5218;DHT22;26539;51.064;6.346;2022-12-16T08:16:36;-1.60;99.90
5218;DHT22;26539;51.064;6.346;2022-12-16T08:19:20;-1.50;99.90
5218;DHT22;26539;51.064;6.346;2022-12-16T08:22:04;-1.50;99.90
5218;DHT22;26539;51.064;6.346;2022-12-16T08:24:48;-1.40;93.10
5218;DHT22;26539;51.064;6.346;2022-12-16T08:27:32;-1.40;94.90
5218;DHT22;26539;51.064;6.346;2022-12-16T08:30:16;-1.40;93.50
5218;DHT22;26539;51.064;6.346;2022-12-16T08:33:00;-1.30;94.80
5218;DHT22;26539;51.064;6.346;2022-12-16T08:35:44;-1.30;99.90
5218;DHT22;26539;51.064;6.346;2022-12-16T08:38:28;-1.20;99.90
5218;DHT22;26539;51.064;6.346;2022-12-16T08:41:12;-1.20;99.90
5218;DHT22;26539;51.064;6.346;2022-12-16T08:43:56;-1.10;99.90
5218;DHT22;26539;51.064;6.346;2022-12-16T08:46:40;-1.10;99.90
5218;DHT22;26539;51.064;6.346;2022-12-16T08:49:24;-1.00;99.90
5218;DHT22;26539;51.064;6.346;2022-12-16T08:52:08;-1.00;99.90
5218;DHT22;26539;51.064;6.346;2022-12-16T08:54:53;-1.00;99.90
5218;DHT22;26539;51.064;6.346;2022-12-16T08:57:36;-0.90;99.90
5218;DHT22;26539;51.064;6.346;2022-12-16T09:00:21;-0.90;99.90
5218;DHT22;26539;51.064;6.346;2022-12-16T09:03:05;-0.80;99.90
5218;DHT22;26539;51.064;6.346;2022-12-16T09:06:19;-0.80;99.90
5218;DHT22;26539;51.064;6.346;2022-12-16T09:09:09;-0.80;99.90
5218;DHT22;26539;51.064;6.346;2022-12-16T09:11:57;-0.70;99.90
5218;DHT22;26539;51.064;6.346;2022-12-16T09:17:56;-0.70;99.90
5218;DHT22;26539;51.064;6.346;2022-12-16T09:20:41;-0.60;99.90
5218;DHT22;26539;51.064;6.346;2022-12-16T09:23:25;-0.60;99.90
5218;DHT22;26539;51.064;6.346;2022-12-16T09:26:12;-0.50;99.90
5218;DHT22;26539;51.064;6.346;2022-12-16T09:29:17;-0.50;1.00
5218;DHT22;26539;51.064;6.346;2022-12-16T09:32:00;-0.40;1.00
5218;DHT22;26539;51.064;6.346;2022-12-16T09:34:44;-0.30;1.00
5218;DHT22;26539;51.064;6.346;2022-12-16T09:37:28;-0.30;1.00
5218;DHT22;26539;51.064;6.346;2022-12-16T09:40:14;-0.20;1.00
5218;DHT22;26539;51.064;6.346;2022-12-16T09:51:59;0.20;1.00
5218;DHT22;26539;51.064;6.346;2022-12-16T09:54:45;0.30;1.00
5218;DHT22;26539;51.064;6.346;2022-12-16T09:57:32;0.30;81.70
5218;DHT22;26539;51.064;6.346;2022-12-16T10:00:23;0.40;99.90
5218;DHT22;26539;51.064;6.346;2022-12-16T10:03:23;0.40;99.90
5218;DHT22;26539;51.064;6.346;2022-12-16T10:09:27;0.50;99.90
5218;DHT22;26539;51.064;6.346;2022-12-16T10:12:21;0.50;99.90
5218;DHT22;26539;51.064;6.346;2022-12-16T10:15:35;0.60;99.90
5218;DHT22;26539;51.064;6.346;2022-12-16T10:18:31;0.60;99.90
5218;DHT22;26539;51.064;6.346;2022-12-16T10:21:24;0.70;99.90
5218;DHT22;26539;51.064;6.346;2022-12-16T10:25:07;0.80;99.90
5218;DHT22;26539;51.064;6.346;2022-12-16T10:27:46;0.80;99.90
5218;DHT22;26539;51.064;6.346;2022-12-16T10:30:33;0.90;47.00
5218;DHT22;26539;51.064;6.346;2022-12-16T10:33:20;1.00;15.60
5218;DHT22;26539;51.064;6.346;2022-12-16T10:36:14;1.00;37.70
5218;DHT22;26539;51.064;6.346;2022-12-16T10:39:13;1.10;1.00
5218;DHT22;26539;51.064;6.346;2022-12-16T10:41:59;1.20;1.00
5218;DHT22;26539;51.064;6.346;2022-12-16T10:45:01;1.20;1.00
5218;DHT22;26539;51.064;6.346;2022-12-16T10:47:55;1.30;1.00
5218;DHT22;26539;51.064;6.346;2022-12-16T10:50:39;1.40;1.00
5218;DHT22;26539;51.064;6.346;2022-12-16T10:53:26;1.40;1.00
5218;DHT22;26539;51.064;6.346;2022-12-16T10:56:33;1.40;1.00
5218;DHT22;26539;51.064;6.346;2022-12-16T10:59:23;1.50;1.00
5218;DHT22;26539;51.064;6.346;2022-12-16T11:02:19;1.50;1.00
5218;DHT22;26539;51.064;6.346;2022-12-16T11:05:27;1.60;1.00
5218;DHT22;26539;51.064;6.346;2022-12-16T11:08:28;1.60;1.00
5218;DHT22;26539;51.064;6.346;2022-12-16T11:14:51;1.70;1.00
5218;DHT22;26539;51.064;6.346;2022-12-16T11:17:35;1.80;1.00
5218;DHT22;26539;51.064;6.346;2022-12-16T11:20:22;1.90;1.00
5218;DHT22;26539;51.064;6.346;2022-12-16T11:23:21;1.90;1.00
5218;DHT22;26539;51.064;6.346;2022-12-16T11:26:08;2.00;1.00
5218;DHT22;26539;51.064;6.346;2022-12-16T11:31:55;2.10;99.90
5218;DHT22;26539;51.064;6.346;2022-12-16T11:34:41;2.20;99.90
5218;DHT22;26539;51.064;6.346;2022-12-16T11:37:30;2.30;99.90
5218;DHT22;26539;51.064;6.346;2022-12-16T11:40:16;2.30;99.90
5218;DHT22;26539;51.064;6.346;2022-12-16T11:43:02;2.30;99.90
5218;DHT22;26539;51.064;6.346;2022-12-16T11:45:48;2.30;99.90
5218;DHT22;26539;51.064;6.346;2022-12-16T11:48:38;2.40;99.90
5218;DHT22;26539;51.064;6.346;2022-12-16T11:51:38;2.40;99.90
5218;DHT22;26539;51.064;6.346;2022-12-16T11:54:27;2.50;99.90
5218;DHT22;26539;51.064;6.346;2022-12-16T11:57:24;2.50;99.90
5218;DHT22;26539;51.064;6.346;2022-12-16T12:00:15;2.60;99.90
5218;DHT22;26539;51.064;6.346;2022-12-16T12:03:10;2.60;98.90
5218;DHT22;26539;51.064;6.346;2022-12-16T12:06:10;2.70;52.70
5218;DHT22;26539;51.064;6.346;2022-12-16T12:09:15;2.70;29.50
5218;DHT22;26539;51.064;6.346;2022-12-16T12:27:12;3.40;1.00
5218;DHT22;26539;51.064;6.346;2022-12-16T12:30:08;3.70;1.00
5218;DHT22;26539;51.064;6.346;2022-12-16T12:36:11;3.70;99.90
5218;DHT22;26539;51.064;6.346;2022-12-16T12:39:36;3.80;99.90
5218;DHT22;26539;51.064;6.346;2022-12-16T12:43:03;3.80;99.90
5218;DHT22;26539;51.064;6.346;2022-12-16T12:48:46;3.70;99.90
5218;DHT22;26539;51.064;6.346;2022-12-16T12:54:40;3.60;99.90
5218;DHT22;26539;51.064;6.346;2022-12-16T12:57:27;3.50;99.90
5218;DHT22;26539;51.064;6.346;2022-12-16T13:00:20;3.50;99.90
5218;DHT22;26539;51.064;6.346;2022-12-16T13:03:20;3.40;1.00
5218;DHT22;26539;51.064;6.346;2022-12-16T13:06:07;3.30;1.00
5218;DHT22;26539;51.064;6.346;2022-12-16T13:08:57;3.40;1.00
5218;DHT22;26539;51.064;6.346;2022-12-16T13:15:34;3.30;1.00
5218;DHT22;26539;51.064;6.346;2022-12-16T13:20:46;3.30;1.00
5218;DHT22;26539;51.064;6.346;2022-12-16T13:26:17;3.30;1.00
5218;DHT22;26539;51.064;6.346;2022-12-16T13:29:22;3.30;1.00
5218;DHT22;26539;51.064;6.346;2022-12-16T13:32:17;3.40;1.00
5218;DHT22;26539;51.064;6.346;2022-12-16T13:35:14;3.30;1.00
5218;DHT22;26539;51.064;6.346;2022-12-16T13:38:05;3.30;1.00
5218;DHT22;26539;51.064;6.346;2022-12-16T13:40:58;3.30;1.00
5218;DHT22;26539;51.064;6.346;2022-12-16T13:46:42;3.30;1.00
5218;DHT22;26539;51.064;6.346;2022-12-16T13:55:28;3.00;1.00
5218;DHT22;26539;51.064;6.346;2022-12-16T13:58:39;2.90;1.00
5218;DHT22;26539;51.064;6.346;2022-12-16T14:04:38;2.70;99.90
5218;DHT22;26539;51.064;6.346;2022-12-16T14:07:25;2.70;99.90
5218;DHT22;26539;51.064;6.346;2022-12-16T14:10:42;2.70;99.90
5218;DHT22;26539;51.064;6.346;2022-12-16T14:13:40;2.60;99.90
5218;DHT22;26539;51.064;6.346;2022-12-16T14:16:44;2.60;99.90
5218;DHT22;26539;51.064;6.346;2022-12-16T14:25:46;2.50;1.00
5218;DHT22;26539;51.064;6.346;2022-12-16T14:28:38;2.50;1.00
5218;DHT22;26539;51.064;6.346;2022-12-16T14:31:27;2.40;1.00
5218;DHT22;26539;51.064;6.346;2022-12-16T14:39:59;2.40;99.90
5218;DHT22;26539;51.064;6.346;2022-12-16T14:42:45;2.40;99.90
5218;DHT22;26539;51.064;6.346;2022-12-16T14:45:34;2.30;1.00
5218;DHT22;26539;51.064;6.346;2022-12-16T14:48:35;2.20;1.00
5218;DHT22;26539;51.064;6.346;2022-12-16T14:54:29;2.10;99.90
5218;DHT22;26539;51.064;6.346;2022-12-16T14:57:23;2.10;99.90
5218;DHT22;26539;51.064;6.346;2022-12-16T15:03:31;2.10;1.00
5218;DHT22;26539;51.064;6.346;2022-12-16T15:06:15;2.20;1.00
5218;DHT22;26539;51.064;6.346;2022-12-16T15:09:03;2.20;1.00
5218;DHT22;26539;51.064;6.346;2022-12-16T15:11:50;2.10;99.90
5218;DHT22;26539;51.064;6.346;2022-12-16T15:14:38;2.00;1.00
5218;DHT22;26539;51.064;6.346;2022-12-16T15:17:26;2.00;1.00
5218;DHT22;26539;51.064;6.346;2022-12-16T15:20:19;1.90;99.90
5218;DHT22;26539;51.064;6.346;2022-12-16T15:23:24;1.80;1.00
5218;DHT22;26539;51.064;6.346;2022-12-16T15:26:21;1.70;52.10
5218;DHT22;26539;51.064;6.346;2022-12-16T15:32:28;1.60;1.00
5218;DHT22;26539;51.064;6.346;2022-12-16T15:35:26;1.50;29.60
5218;DHT22;26539;51.064;6.346;2022-12-16T15:38:19;1.50;99.90
5218;DHT22;26539;51.064;6.346;2022-12-16T15:41:49;1.50;99.90
5218;DHT22;26539;51.064;6.346;2022-12-16T15:44:27;1.50;1.00
5218;DHT22;26539;51.064;6.346;2022-12-16T15:47:29;1.50;1.00
5218;DHT22;26539;51.064;6.346;2022-12-16T15:50:14;1.50;1.00
5218;DHT22;26539;51.064;6.346;2022-12-16T15:53:26;1.50;1.00
5218;DHT22;26539;51.064;6.346;2022-12-16T15:56:23;1.50;1.00
5218;DHT22;26539;51.064;6.346;2022-12-16T15:59:28;1.50;1.00
5218;DHT22;26539;51.064;6.346;2022-12-16T16:02:26;1.50;1.00
5218;DHT22;26539;51.064;6.346;2022-12-16T16:05:19;1.60;1.00
5218;DHT22;26539;51.064;6.346;2022-12-16T16:08:04;1.60;1.00
5218;DHT22;26539;51.064;6.346;2022-12-16T16:10:48;1.60;1.00
5218;DHT22;26539;51.064;6.346;2022-12-16T16:13:33;1.60;1.00
5218;DHT22;26539;51.064;6.346;2022-12-16T16:16:17;1.60;1.00
5218;DHT22;26539;51.064;6.346;2022-12-16T16:19:01;1.60;1.00
5218;DHT22;26539;51.064;6.346;2022-12-16T16:21:45;1.60;1.00
5218;DHT22;26539;51.064;6.346;2022-12-16T16:24:29;1.50;1.00
5218;DHT22;26539;51.064;6.346;2022-12-16T16:27:21;1.50;1.00
5218;DHT22;26539;51.064;6.346;2022-12-16T16:30:08;1.40;1.00
5218;DHT22;26539;51.064;6.346;2022-12-16T16:33:02;1.40;1.00
5218;DHT22;26539;51.064;6.346;2022-12-16T16:35:46;1.40;1.00
5218;DHT22;26539;51.064;6.346;2022-12-16T16:38:30;1.40;1.00
5218;DHT22;26539;51.064;6.346;2022-12-16T16:41:15;1.40;1.00
5218;DHT22;26539;51.064;6.346;2022-12-16T16:43:59;1.50;1.00
5218;DHT22;26539;51.064;6.346;2022-12-16T16:46:44;1.50;5.30
5218;DHT22;26539;51.064;6.346;2022-12-16T16:49:37;1.40;9.20
5218;DHT22;26539;51.064;6.346;2022-12-16T16:52:23;1.40;10.80
5218;DHT22;26539;51.064;6.346;2022-12-16T16:58:07;1.30;62.60
5218;DHT22;26539;51.064;6.346;2022-12-16T17:00:53;1.30;99.90
5218;DHT22;26539;51.064;6.346;2022-12-16T17:03:37;1.30;99.90
5218;DHT22;26539;51.064;6.346;2022-12-16T17:06:21;1.30;99.90
5218;DHT22;26539;51.064;6.346;2022-12-16T17:09:05;1.30;99.90
5218;DHT22;26539;51.064;6.346;2022-12-16T17:11:49;1.30;99.90
5218;DHT22;26539;51.064;6.346;2022-12-16T17:14:33;1.40;99.90
5218;DHT22;26539;51.064;6.346;2022-12-16T17:17:37;1.40;99.90
5218;DHT22;26539;51.064;6.346;2022-12-16T17:20:21;1.50;99.90
5218;DHT22;26539;51.064;6.346;2022-12-16T17:23:05;1.50;99.90
5218;DHT22;26539;51.064;6.346;2022-12-16T17:25:50;1.50;99.90
5218;DHT22;26539;51.064;6.346;2022-12-16T17:28:34;1.60;99.90
5218;DHT22;26539;51.064;6.346;2022-12-16T17:31:18;1.60;90.80
5218;DHT22;26539;51.064;6.346;2022-12-16T17:34:02;1.70;54.60
5218;DHT22;26539;51.064;6.346;2022-12-16T17:36:46;1.70;11.10
5218;DHT22;26539;51.064;6.346;2022-12-16T17:39:30;1.70;1.00
5218;DHT22;26539;51.064;6.346;2022-12-16T17:42:14;1.70;1.00
5218;DHT22;26539;51.064;6.346;2022-12-16T17:44:58;1.70;1.00
5218;DHT22;26539;51.064;6.346;2022-12-16T17:50:56;1.80;1.00
5218;DHT22;26539;51.064;6.346;2022-12-16T17:53:42;1.80;1.00
5218;DHT22;26539;51.064;6.346;2022-12-16T17:56:34;1.80;1.00
5218;DHT22;26539;51.064;6.346;2022-12-16T17:59:18;1.80;1.00
5218;DHT22;26539;51.064;6.346;2022-12-16T18:02:02;1.80;1.00
5218;DHT22;26539;51.064;6.346;2022-12-16T18:04:46;1.80;1.00
5218;DHT22;26539;51.064;6.346;2022-12-16T18:07:33;1.80;1.00
5218;DHT22;26539;51.064;6.346;2022-12-16T18:10:20;1.80;1.00
5218;DHT22;26539;51.064;6.346;2022-12-16T18:13:06;1.80;1.00
5218;DHT22;26539;51.064;6.346;2022-12-16T18:15:53;1.90;1.00
5218;DHT22;26539;51.064;6.346;2022-12-16T18:18:37;1.90;1.00
5218;DHT22;26539;51.064;6.346;2022-12-16T18:24:39;1.80;1.00
5218;DHT22;26539;51.064;6.346;2022-12-16T18:27:28;1.80;1.00
5218;DHT22;26539;51.064;6.346;2022-12-16T18:30:29;1.80;1.00
5218;DHT22;26539;51.064;6.346;2022-12-16T18:33:15;1.90;1.00
5218;DHT22;26539;51.064;6.346;2022-12-16T18:36:00;1.80;1.00
5218;DHT22;26539;51.064;6.346;2022-12-16T18:38:44;1.80;1.00
5218;DHT22;26539;51.064;6.346;2022-12-16T18:41:28;1.70;1.00
5218;DHT22;26539;51.064;6.346;2022-12-16T18:44:12;1.70;1.00
5218;DHT22;26539;51.064;6.346;2022-12-16T18:46:57;1.70;1.00
5218;DHT22;26539;51.064;6.346;2022-12-16T18:49:41;1.70;1.00
5218;DHT22;26539;51.064;6.346;2022-12-16T18:52:26;1.70;1.00
5218;DHT22;26539;51.064;6.346;2022-12-16T18:55:10;1.80;1.00
5218;DHT22;26539;51.064;6.346;2022-12-16T18:57:55;1.80;1.00
5218;DHT22;26539;51.064;6.346;2022-12-16T19:00:39;1.80;1.00
5218;DHT22;26539;51.064;6.346;2022-12-16T19:03:23;1.80;1.00
5218;DHT22;26539;51.064;6.346;2022-12-16T19:06:07;1.80;1.00
5218;DHT22;26539;51.064;6.346;2022-12-16T19:08:51;1.80;1.00
5218;DHT22;26539;51.064;6.346;2022-12-16T19:11:35;1.80;1.00
5218;DHT22;26539;51.064;6.346;2022-12-16T19:14:19;1.90;1.00
5218;DHT22;26539;51.064;6.346;2022-12-16T19:17:04;1.90;1.00
5218;DHT22;26539;51.064;6.346;2022-12-16T19:19:48;1.90;1.00
5218;DHT22;26539;51.064;6.346;2022-12-16T19:22:32;1.90;1.00
5218;DHT22;26539;51.064;6.346;2022-12-16T19:25:16;1.80;1.00
5218;DHT22;26539;51.064;6.346;2022-12-16T19:28:00;1.90;1.00
5218;DHT22;26539;51.064;6.346;2022-12-16T19:30:53;1.90;1.00
5218;DHT22;26539;51.064;6.346;2022-12-16T19:33:37;1.90;1.00
5218;DHT22;26539;51.064;6.346;2022-12-16T19:36:21;1.90;1.00
5218;DHT22;26539;51.064;6.346;2022-12-16T19:39:05;1.90;99.90